Terminal Aerodrome Forecast
Issued by NWS

Home | Current Version | Previous Version | Text Only | Print | Product List | Glossary On
Versions: 1 2 3 4 5 6 7 8 9 10 11 12 13 14 15
751
FTUS41 KBTV 271735
TAFMSS
TAF
KMSS 271735Z 2718/2818 26008KT P6SM VCSH BKN060
     FM272300 27005KT P6SM BKN070
     FM280400 32004KT P6SM SCT080=

USA.gov is the U.S. government's official web portal to all federal, state and local government web resources and services.